Time;durP1;ratioP1;P1;durP2;ratioP2;P2;SDS_P1;SDS_P2;PMS_P1;PMS_P2;Temp;Humidity;BMP_temperature;BMP_pressure;BME280_temperature;BME280_humidity;BME280_pressure;Samples;Min_cycle;Max_cycle;Signal;HPM_P1;HPM_P2
2023/09/18 00:00:30;;;;;;;11.65;5.70;;;;;;;;;;6115471;28;20138;-86
2023/09/18 00:03:32;;;;;;;8.15;5.50;;;;;;;;;;6108541;28;20057;-86
2023/09/18 00:06:34;;;;;;;9.55;5.72;;;;;;;;;;6126499;28;20044;-86
2023/09/18 00:09:36;;;;;;;11.20;6.00;;;;;;;;;;6116853;28;20054;-87
2023/09/18 00:12:41;;;;;;;8.60;5.63;;;;;;;;;;6079769;28;20051;-86
2023/09/18 00:15:46;;;;;;;10.40;5.50;;;;;;;;;;6127451;28;20048;-86
2023/09/18 00:18:48;;;;;;;8.20;5.70;;;;;;;;;;6125576;28;20050;-86
2023/09/18 00:21:52;;;;;;;8.60;5.88;;;;;;;;;;6124642;28;20110;-86
2023/09/18 00:24:54;;;;;;;11.35;5.60;;;;;;;;;;6129522;28;20047;-85
2023/09/18 00:27:56;;;;;;;8.98;5.45;;;;;;;;;;6128334;28;20044;-85
2023/09/18 00:30:58;;;;;;;8.95;5.88;;;;;;;;;;6111119;28;20040;-86
2023/09/18 00:34:00;;;;;;;9.23;5.60;;;;;;;;;;6126348;28;20044;-86
2023/09/18 00:37:02;;;;;;;8.20;5.07;;;;;;;;;;6074824;29;20442;-86
2023/09/18 00:40:05;;;;;;;8.07;5.35;;;;;;;;;;6119224;28;20044;-86
2023/09/18 00:43:08;;;;;;;7.50;5.18;;;;;;;;;;6109314;28;20054;-85
2023/09/18 00:46:10;;;;;;;12.98;6.35;;;;;;;;;;6081143;28;20122;-86
2023/09/18 00:49:13;;;;;;;7.18;4.72;;;;;;;;;;6123787;28;20094;-86
2023/09/18 00:52:17;;;;;;;10.13;5.57;;;;;;;;;;6109013;28;20400;-86
2023/09/18 00:55:19;;;;;;;8.68;5.68;;;;;;;;;;6110830;28;20048;-86
2023/09/18 00:58:22;;;;;;;8.65;5.60;;;;;;;;;;6100581;28;20051;-85
2023/09/18 01:01:24;;;;;;;7.32;5.30;;;;;;;;;;6108213;28;20119;-86
2023/09/18 01:04:28;;;;;;;6.63;5.05;;;;;;;;;;6123274;28;20373;-86
2023/09/18 01:07:30;;;;;;;7.03;4.88;;;;;;;;;;6125390;28;20055;-86
2023/09/18 01:11:02;;;;;;;10.27;5.25;;;;;;;;;;6101228;28;20720;-86
2023/09/18 01:14:17;;;;;;;13.75;6.65;;;;;;;;;;6100830;28;20055;-85
2023/09/18 01:17:19;;;;;;;7.55;5.57;;;;;;;;;;6111775;28;20262;-86
2023/09/18 01:20:22;;;;;;;9.15;5.75;;;;;;;;;;6118547;28;20058;-86
2023/09/18 01:23:24;;;;;;;12.53;6.67;;;;;;;;;;6092340;28;20055;-86
2023/09/18 01:26:26;;;;;;;16.63;7.53;;;;;;;;;;6101156;28;20052;-86
2023/09/18 01:29:28;;;;;;;17.67;8.00;;;;;;;;;;6125943;28;20043;-85
2023/09/18 01:32:32;;;;;;;20.17;8.15;;;;;;;;;;6095052;28;20048;-86
2023/09/18 01:35:35;;;;;;;15.43;7.78;;;;;;;;;;6142905;28;20037;-86
2023/09/18 01:38:38;;;;;;;27.88;9.20;;;;;;;;;;6150307;28;20055;-86
2023/09/18 01:41:40;;;;;;;20.87;8.70;;;;;;;;;;6105754;28;20214;-86
2023/09/18 01:44:43;;;;;;;20.98;8.98;;;;;;;;;;6105923;28;20507;-86
2023/09/18 01:47:46;;;;;;;33.80;9.80;;;;;;;;;;6110380;28;20126;-86
2023/09/18 01:50:47;;;;;;;29.30;8.50;;;;;;;;;;6110814;28;20415;-85
2023/09/18 01:53:52;;;;;;;20.75;9.00;;;;;;;;;;6128863;28;20040;-85
2023/09/18 01:56:54;;;;;;;31.25;9.57;;;;;;;;;;6098444;28;20055;-85
2023/09/18 01:59:55;;;;;;;21.35;8.77;;;;;;;;;;6120122;28;20154;-85
2023/09/18 02:02:58;;;;;;;17.73;9.07;;;;;;;;;;6127180;28;20055;-85
2023/09/18 02:06:19;;;;;;;21.52;8.40;;;;;;;;;;6084289;28;20871;-85
2023/09/18 02:09:21;;;;;;;23.77;8.13;;;;;;;;;;6120885;28;20044;-85
2023/09/18 02:12:23;;;;;;;13.52;7.32;;;;;;;;;;6129677;28;20529;-85
2023/09/18 02:15:27;;;;;;;13.48;7.70;;;;;;;;;;6114725;28;20048;-85
2023/09/18 02:18:29;;;;;;;13.40;7.80;;;;;;;;;;6129581;28;20052;-85
2023/09/18 02:21:31;;;;;;;16.05;6.95;;;;;;;;;;6112485;28;20285;-85
2023/09/18 02:24:36;;;;;;;12.30;7.75;;;;;;;;;;6109328;28;20411;-85
2023/09/18 02:27:38;;;;;;;10.38;6.63;;;;;;;;;;6092415;28;20048;-85
2023/09/18 02:30:40;;;;;;;14.65;7.15;;;;;;;;;;6107121;28;20047;-85
2023/09/18 02:33:42;;;;;;;11.27;6.57;;;;;;;;;;6109858;28;20054;-85
2023/09/18 02:36:46;;;;;;;14.13;7.03;;;;;;;;;;6084732;28;20051;-85
2023/09/18 02:39:49;;;;;;;9.45;6.40;;;;;;;;;;6106983;28;20070;-85
2023/09/18 02:42:50;;;;;;;10.43;6.18;;;;;;;;;;6128695;28;20515;-85
2023/09/18 02:45:52;;;;;;;9.03;6.60;;;;;;;;;;6115092;28;20043;-85
2023/09/18 02:48:54;;;;;;;9.63;7.00;;;;;;;;;;6129824;28;20391;-85
2023/09/18 02:51:56;;;;;;;9.53;6.23;;;;;;;;;;6110896;28;20452;-85
2023/09/18 02:54:58;;;;;;;9.30;5.97;;;;;;;;;;6116388;28;20466;-85
2023/09/18 02:58:03;;;;;;;9.93;6.35;;;;;;;;;;6114560;28;20502;-85
2023/09/18 03:01:07;;;;;;;11.13;7.07;;;;;;;;;;6129163;28;20051;-85
2023/09/18 03:04:12;;;;;;;10.38;6.28;;;;;;;;;;6117094;28;20167;-85
2023/09/18 03:07:16;;;;;;;13.70;6.83;;;;;;;;;;6127177;28;20062;-85
2023/09/18 03:10:18;;;;;;;11.82;7.70;;;;;;;;;;6114962;29;20067;-85
2023/09/18 03:13:21;;;;;;;14.52;8.43;;;;;;;;;;6127483;28;20055;-85
2023/09/18 03:16:23;;;;;;;14.45;8.10;;;;;;;;;;6121258;28;20047;-85
2023/09/18 03:19:26;;;;;;;13.00;7.23;;;;;;;;;;6102631;28;20523;-85
2023/09/18 03:22:29;;;;;;;12.35;7.72;;;;;;;;;;6107180;28;20043;-85
2023/09/18 03:25:31;;;;;;;16.35;9.85;;;;;;;;;;6127487;28;20048;-85
2023/09/18 03:28:53;;;;;;;16.30;7.93;;;;;;;;;;6113944;28;20055;-85
2023/09/18 03:31:58;;;;;;;12.73;7.68;;;;;;;;;;6132706;28;20051;-85
2023/09/18 03:35:00;;;;;;;14.40;7.78;;;;;;;;;;6105570;28;20616;-85
2023/09/18 03:38:03;;;;;;;11.70;7.97;;;;;;;;;;6127079;28;20059;-85
2023/09/18 03:41:05;;;;;;;9.75;7.07;;;;;;;;;;6109133;28;20046;-85
2023/09/18 03:44:07;;;;;;;12.25;7.28;;;;;;;;;;6108693;28;20411;-85
2023/09/18 03:47:09;;;;;;;12.35;7.40;;;;;;;;;;6112711;28;20036;-85
2023/09/18 03:50:12;;;;;;;13.03;6.87;;;;;;;;;;6095821;29;20056;-85
2023/09/18 03:53:14;;;;;;;12.32;7.38;;;;;;;;;;6111733;28;20047;-86
2023/09/18 03:56:16;;;;;;;16.65;7.97;;;;;;;;;;6113131;28;20050;-85
2023/09/18 03:59:18;;;;;;;11.90;7.50;;;;;;;;;;6111747;28;20098;-85
2023/09/18 04:02:23;;;;;;;11.18;7.22;;;;;;;;;;6105271;28;20047;-85
2023/09/18 04:05:25;;;;;;;11.73;6.93;;;;;;;;;;6111977;29;20052;-85
2023/09/18 04:08:27;;;;;;;12.20;6.70;;;;;;;;;;6128324;28;20048;-86
2023/09/18 04:11:32;;;;;;;8.10;6.23;;;;;;;;;;6091063;29;20086;-86
2023/09/18 04:14:34;;;;;;;13.43;7.15;;;;;;;;;;6124896;28;20039;-85
2023/09/18 04:17:37;;;;;;;13.25;7.07;;;;;;;;;;6157152;28;20060;-85
2023/09/18 04:20:39;;;;;;;10.38;7.03;;;;;;;;;;6140337;28;20126;-85
2023/09/18 04:23:41;;;;;;;9.85;6.63;;;;;;;;;;6121250;28;20051;-85
2023/09/18 04:26:43;;;;;;;9.07;6.63;;;;;;;;;;6078257;28;20047;-86
2023/09/18 04:29:45;;;;;;;11.50;7.13;;;;;;;;;;6109573;28;20079;-85
2023/09/18 04:32:47;;;;;;;12.63;8.10;;;;;;;;;;6111996;28;20126;-85
2023/09/18 04:35:50;;;;;;;10.48;7.75;;;;;;;;;;6098808;28;20326;-86
2023/09/18 04:38:52;;;;;;;11.95;7.72;;;;;;;;;;6113175;28;20092;-85
2023/09/18 04:41:54;;;;;;;11.90;7.45;;;;;;;;;;6106304;28;20442;-86
2023/09/18 04:44:57;;;;;;;12.73;7.70;;;;;;;;;;6106975;29;20499;-86
2023/09/18 04:47:59;;;;;;;13.10;7.38;;;;;;;;;;6119230;28;20146;-86
2023/09/18 04:51:03;;;;;;;14.43;7.50;;;;;;;;;;6090179;28;20051;-85
2023/09/18 04:54:06;;;;;;;12.35;7.22;;;;;;;;;;6111759;28;20047;-85
2023/09/18 04:57:09;;;;;;;11.63;7.03;;;;;;;;;;6114195;28;20054;-85
2023/09/18 05:00:13;;;;;;;13.63;6.93;;;;;;;;;;6113314;28;20039;-84
2023/09/18 05:03:19;;;;;;;14.60;7.15;;;;;;;;;;6126670;28;20044;-84
2023/09/18 05:06:21;;;;;;;10.02;7.03;;;;;;;;;;6113914;28;20051;-84
2023/09/18 05:09:23;;;;;;;10.60;6.67;;;;;;;;;;6122435;28;20054;-85
2023/09/18 05:12:25;;;;;;;11.05;6.88;;;;;;;;;;6110156;29;20060;-85
2023/09/18 05:15:29;;;;;;;13.55;7.95;;;;;;;;;;6128261;28;20091;-85
2023/09/18 05:18:31;;;;;;;13.18;7.22;;;;;;;;;;6117038;28;20047;-84
2023/09/18 05:21:33;;;;;;;13.93;7.70;;;;;;;;;;6121383;28;20087;-85
2023/09/18 05:24:35;;;;;;;13.55;8.10;;;;;;;;;;6116403;28;20043;-85
2023/09/18 05:27:47;;;;;;;14.63;7.88;;;;;;;;;;6129639;28;20515;-85
2023/09/18 05:30:49;;;;;;;12.13;7.13;;;;;;;;;;6116225;28;20055;-85
2023/09/18 05:33:51;;;;;;;14.38;7.72;;;;;;;;;;6128497;28;20059;-85
2023/09/18 05:36:53;;;;;;;12.52;7.47;;;;;;;;;;6135007;28;20047;-85
2023/09/18 05:39:54;;;;;;;13.20;8.00;;;;;;;;;;6118844;28;20080;-86
2023/09/18 05:42:56;;;;;;;11.52;6.88;;;;;;;;;;6110559;28;20054;-85
2023/09/18 05:45:59;;;;;;;13.48;7.68;;;;;;;;;;6111872;28;20048;-85
2023/09/18 05:49:01;;;;;;;;;;;;;;;;;;6114569;28;20047;-85
2023/09/18 05:52:03;;;;;;;11.07;7.43;;;;;;;;;;6129722;28;19953;-85
2023/09/18 05:55:06;;;;;;;13.45;7.38;;;;;;;;;;6112315;29;20050;-85
2023/09/18 05:58:08;;;;;;;10.63;6.78;;;;;;;;;;6127095;28;20054;-85
2023/09/18 06:01:10;;;;;;;10.13;7.07;;;;;;;;;;6113594;29;20522;-85
2023/09/18 06:04:12;;;;;;;12.77;8.18;;;;;;;;;;6128467;28;20106;-85
2023/09/18 06:07:15;;;;;;;13.52;9.25;;;;;;;;;;6111064;29;20047;-85
2023/09/18 06:10:17;;;;;;;12.52;8.45;;;;;;;;;;6090347;29;20062;-85
2023/09/18 06:13:19;;;;;;;13.77;8.95;;;;;;;;;;6094529;29;20052;-85
2023/09/18 06:16:23;;;;;;;15.95;8.18;;;;;;;;;;6073331;29;20051;-85
2023/09/18 06:19:27;;;;;;;11.63;8.45;;;;;;;;;;6092736;28;20060;-86
2023/09/18 06:22:40;;;;;;;14.07;8.25;;;;;;;;;;6062088;29;20234;-85
2023/09/18 06:25:42;;;;;;;11.52;7.60;;;;;;;;;;6069391;29;20082;-85
2023/09/18 06:28:59;;;;;;;15.90;7.30;;;;;;;;;;6062787;28;20097;-85
2023/09/18 06:32:19;;;;;;;14.00;7.07;;;;;;;;;;6012803;29;20462;-85
2023/09/18 06:35:38;;;;;;;11.43;6.55;;;;;;;;;;6049448;29;20538;-86
2023/09/18 06:38:51;;;;;;;11.40;5.35;;;;;;;;;;6085051;29;20055;-87
2023/09/18 06:41:54;;;;;;;15.60;5.43;;;;;;;;;;6088857;29;20036;-86
2023/09/18 06:44:56;;;;;;;10.00;4.75;;;;;;;;;;6087992;29;20048;-86
2023/09/18 06:47:57;;;;;;;13.30;4.60;;;;;;;;;;6090196;29;20548;-86
2023/09/18 06:51:00;;;;;;;9.60;4.10;;;;;;;;;;6099248;29;20032;-87
2023/09/18 06:54:02;;;;;;;9.77;3.88;;;;;;;;;;6103280;29;20048;-86
2023/09/18 06:57:04;;;;;;;9.45;4.03;;;;;;;;;;6125326;29;20040;-87
2023/09/18 07:00:08;;;;;;;10.93;4.05;;;;;;;;;;6097044;29;20044;-86
2023/09/18 07:03:11;;;;;;;11.68;4.60;;;;;;;;;;6112758;29;20059;-84
2023/09/18 07:06:18;;;;;;;16.25;4.70;;;;;;;;;;6124720;29;20044;-85
2023/09/18 07:09:22;;;;;;;12.07;4.93;;;;;;;;;;6123243;29;20052;-84
2023/09/18 07:12:24;;;;;;;8.57;4.00;;;;;;;;;;6124372;29;20052;-83
2023/09/18 07:15:26;;;;;;;8.98;4.20;;;;;;;;;;6106751;29;20056;-84
2023/09/18 07:18:28;;;;;;;9.32;4.13;;;;;;;;;;6111255;29;20059;-84
2023/09/18 07:21:30;;;;;;;9.95;4.57;;;;;;;;;;6104305;29;20519;-83
2023/09/18 07:24:32;;;;;;;6.18;3.88;;;;;;;;;;6104585;29;20075;-84
2023/09/18 07:27:36;;;;;;;9.50;3.97;;;;;;;;;;6113570;29;20043;-83
2023/09/18 07:30:38;;;;;;;11.38;3.60;;;;;;;;;;6100318;29;20051;-83
2023/09/18 07:33:40;;;;;;;8.80;3.30;;;;;;;;;;6100542;29;20078;-83
2023/09/18 07:36:44;;;;;;;8.02;3.17;;;;;;;;;;6124973;28;20083;-83
2023/09/18 07:39:46;;;;;;;8.43;3.72;;;;;;;;;;6117560;28;20055;-84
2023/09/18 07:42:48;;;;;;;8.17;3.63;;;;;;;;;;6115396;28;20203;-86
2023/09/18 07:45:50;;;;;;;8.25;3.17;;;;;;;;;;6109632;28;20830;-85
2023/09/18 07:48:52;;;;;;;8.57;3.55;;;;;;;;;;6127982;28;20188;-85
2023/09/18 07:51:54;;;;;;;5.40;3.08;;;;;;;;;;6124712;28;20047;-86
2023/09/18 07:54:57;;;;;;;7.38;2.90;;;;;;;;;;6109124;28;20046;-86
2023/09/18 07:57:59;;;;;;;8.27;3.35;;;;;;;;;;6109297;28;20562;-85
2023/09/18 08:01:05;;;;;;;10.43;3.42;;;;;;;;;;6126753;28;20051;-88
2023/09/18 08:04:07;;;;;;;8.80;3.83;;;;;;;;;;6126884;28;20075;-86
2023/09/18 08:07:09;;;;;;;7.87;3.33;;;;;;;;;;6126385;28;20076;-86
2023/09/18 08:10:12;;;;;;;8.07;2.80;;;;;;;;;;6104365;28;20059;-87
2023/09/18 08:13:14;;;;;;;8.27;2.92;;;;;;;;;;6113698;28;20471;-86
2023/09/18 08:16:17;;;;;;;8.40;2.88;;;;;;;;;;6105571;29;20570;-87
2023/09/18 08:19:19;;;;;;;9.32;2.90;;;;;;;;;;6111383;28;20522;-87
2023/09/18 08:22:21;;;;;;;8.18;3.05;;;;;;;;;;6080205;28;20040;-87
2023/09/18 08:25:23;;;;;;;11.23;2.95;;;;;;;;;;6108319;28;20040;-87
2023/09/18 08:28:25;;;;;;;9.25;2.40;;;;;;;;;;6122146;28;20055;-87
2023/09/18 08:31:27;;;;;;;10.67;3.20;;;;;;;;;;6113833;28;20567;-87
2023/09/18 08:34:29;;;;;;;11.77;3.00;;;;;;;;;;6108359;28;20058;-87
2023/09/18 08:37:31;;;;;;;7.10;2.80;;;;;;;;;;6116874;28;20047;-87
2023/09/18 08:40:34;;;;;;;7.93;2.72;;;;;;;;;;6111676;28;20106;-88
2023/09/18 08:43:49;;;;;;;7.97;2.80;;;;;;;;;;6090168;28;20054;-88
2023/09/18 08:46:59;;;;;;;9.18;2.58;;;;;;;;;;6080114;28;20663;-88
2023/09/18 08:50:26;;;;;;;;;;;;;;;;;;;;;
2023/09/18 08:54:06;;;;;;;9.88;2.92;;;;;;;;;;6009745;29;20055;-88
2023/09/18 08:57:17;;;;;;;7.00;2.55;;;;;;;;;;6050738;28;20187;-88
2023/09/18 09:00:59;;;;;;;8.80;2.80;;;;;;;;;;6036586;28;20431;-87
2023/09/18 09:04:22;;;;;;;6.30;2.60;;;;;;;;;;6019739;28;20114;-87
2023/09/18 09:08:07;;;;;;;;;;;;;;;;;;;;;
2023/09/18 09:12:47;;;;;;;;;;;;;;;;;;;;;
2023/09/18 09:17:27;;;;;;;;;;;;;;;;;;;;;
2023/09/18 09:22:03;;;;;;;6.90;1.98;;;;;;;;;;5999577;29;20085;-89
2023/09/18 09:29:20;;;;;;;6.00;2.40;;;;;;;;;;6246444;27;20604;-81
2023/09/18 09:32:22;;;;;;;5.70;2.05;;;;;;;;;;6204389;28;20050;-81
2023/09/18 09:35:29;;;;;;;6.70;2.13;;;;;;;;;;6215111;28;20058;-82
2023/09/18 09:38:33;;;;;;;5.57;2.38;;;;;;;;;;6234270;28;20597;-81
2023/09/18 09:41:35;;;;;;;7.03;2.60;;;;;;;;;;6218214;28;20052;-79
2023/09/18 09:44:37;;;;;;;4.43;2.50;;;;;;;;;;6219736;28;20038;-80
2023/09/18 09:47:39;;;;;;;6.65;2.58;;;;;;;;;;6218634;28;20120;-80
2023/09/18 09:50:46;;;;;;;5.50;2.20;;;;;;;;;;6225752;28;20652;-80
2023/09/18 09:53:50;;;;;;;6.47;3.47;;;;;;;;;;6236842;28;20049;-78
2023/09/18 09:56:53;;;;;;;5.97;3.20;;;;;;;;;;6220641;28;20106;-81
2023/09/18 10:00:06;;;;;;;;;;;;;;;;;;6214957;28;20038;-79
2023/09/18 10:03:09;;;;;;;8.27;2.23;;;;;;;;;;6210748;28;19926;-78
2023/09/18 10:06:13;;;;;;;6.78;2.95;;;;;;;;;;6217014;28;20065;-79
2023/09/18 10:09:16;;;;;;;4.18;2.47;;;;;;;;;;6212140;28;20041;-78
2023/09/18 10:12:20;;;;;;;7.38;2.58;;;;;;;;;;6214105;28;20053;-80
2023/09/18 10:15:23;;;;;;;4.38;2.85;;;;;;;;;;6223950;28;20586;-79
2023/09/18 10:18:57;;;;;;;6.15;2.20;;;;;;;;;;6220725;28;20050;-78
2023/09/18 10:22:10;;;;;;;4.03;2.33;;;;;;;;;;6184158;28;20133;-79
2023/09/18 10:25:41;;;;;;;6.47;2.58;;;;;;;;;;6200089;28;20129;-79
2023/09/18 10:28:44;;;;;;;4.93;2.47;;;;;;;;;;6208730;28;20057;-79
2023/09/18 10:31:47;;;;;;;4.80;2.10;;;;;;;;;;6205865;28;20055;-79
2023/09/18 10:34:50;;;;;;;10.60;2.65;;;;;;;;;;6209618;28;20173;-79
2023/09/18 10:37:54;;;;;;;4.45;2.33;;;;;;;;;;6218446;28;20049;-78
2023/09/18 10:40:57;;;;;;;5.18;2.38;;;;;;;;;;6209881;28;20045;-79
2023/09/18 10:44:00;;;;;;;3.88;2.38;;;;;;;;;;6193915;28;20045;-78
2023/09/18 10:47:05;;;;;;;4.97;2.72;;;;;;;;;;6196925;28;20520;-78
2023/09/18 10:50:09;;;;;;;5.07;2.40;;;;;;;;;;6191754;28;20069;-79
2023/09/18 10:53:12;;;;;;;4.15;2.42;;;;;;;;;;6196959;28;20049;-79
2023/09/18 10:56:16;;;;;;;3.85;2.47;;;;;;;;;;6200147;28;20132;-79
2023/09/18 10:59:18;;;;;;;4.78;2.38;;;;;;;;;;6196164;28;20052;-78
2023/09/18 11:02:24;;;;;;;4.97;2.30;;;;;;;;;;6193620;28;20185;-79
2023/09/18 11:05:30;;;;;;;3.22;2.00;;;;;;;;;;6195953;28;20045;-78
2023/09/18 11:08:35;;;;;;;4.95;2.10;;;;;;;;;;6188558;28;20453;-78
2023/09/18 11:11:37;;;;;;;4.97;2.30;;;;;;;;;;6194232;28;20046;-78
2023/09/18 11:14:58;;;;;;;4.15;2.30;;;;;;;;;;6182265;28;20041;-78
2023/09/18 11:18:02;;;;;;;5.35;2.10;;;;;;;;;;6191592;28;20447;-78
2023/09/18 11:21:11;;;;;;;3.03;2.10;;;;;;;;;;6195165;28;20042;-78
2023/09/18 11:24:23;;;;;;;5.70;2.33;;;;;;;;;;6182861;28;20140;-79
2023/09/18 11:27:25;;;;;;;3.88;2.25;;;;;;;;;;6193691;28;20133;-79
2023/09/18 11:30:27;;;;;;;3.40;2.53;;;;;;;;;;6201076;28;20123;-79
2023/09/18 11:33:37;;;;;;;4.63;2.15;;;;;;;;;;6193686;28;20046;-78
2023/09/18 11:36:40;;;;;;;4.63;2.13;;;;;;;;;;6196016;28;20096;-78
2023/09/18 11:39:44;;;;;;;6.60;2.50;;;;;;;;;;6192752;28;20084;-78
2023/09/18 11:43:22;;;;;;;4.45;2.28;;;;;;;;;;6203328;28;20058;-79
2023/09/18 11:46:25;;;;;;;4.15;2.38;;;;;;;;;;6192284;28;20050;-79
2023/09/18 11:49:27;;;;;;;6.32;2.28;;;;;;;;;;6204217;28;20081;-80
2023/09/18 11:52:30;;;;;;;4.93;2.05;;;;;;;;;;6181208;28;20041;-79
2023/09/18 11:55:32;;;;;;;3.13;2.05;;;;;;;;;;6196671;28;20038;-79
2023/09/18 11:58:45;;;;;;;3.85;1.75;;;;;;;;;;6175496;28;20731;-79
2023/09/18 12:01:54;;;;;;;2.63;1.85;;;;;;;;;;6197173;28;20046;-80
2023/09/18 12:04:56;;;;;;;2.20;1.45;;;;;;;;;;6198206;28;20042;-79
2023/09/18 12:07:58;;;;;;;1.98;1.55;;;;;;;;;;6192936;28;20149;-79
2023/09/18 12:11:05;;;;;;;3.60;1.40;;;;;;;;;;6193748;28;20438;-80
2023/09/18 12:14:07;;;;;;;2.88;1.73;;;;;;;;;;6199091;28;20042;-80
2023/09/18 12:17:08;;;;;;;3.33;1.25;;;;;;;;;;6198621;28;20042;-80
2023/09/18 12:20:20;;;;;;;1.98;1.40;;;;;;;;;;6191451;28;20496;-80
2023/09/18 12:23:23;;;;;;;3.03;1.45;;;;;;;;;;6202059;28;20053;-80
2023/09/18 12:26:26;;;;;;;1.95;1.33;;;;;;;;;;6194388;28;20050;-79
2023/09/18 12:29:32;;;;;;;4.70;1.95;;;;;;;;;;6205273;28;20500;-77
2023/09/18 12:32:37;;;;;;;2.17;1.50;;;;;;;;;;6190291;28;20049;-77
2023/09/18 12:35:42;;;;;;;3.72;1.70;;;;;;;;;;6208500;28;20049;-78
2023/09/18 12:38:44;;;;;;;2.92;2.13;;;;;;;;;;6191198;28;20045;-78
2023/09/18 12:41:47;;;;;;;2.53;2.00;;;;;;;;;;6188219;28;20046;-79
2023/09/18 12:44:50;;;;;;;3.45;2.17;;;;;;;;;;6197528;28;20046;-78
2023/09/18 12:47:55;;;;;;;3.65;2.08;;;;;;;;;;6201358;28;20077;-79
2023/09/18 12:51:07;;;;;;;2.58;2.28;;;;;;;;;;6214774;28;20046;-78
2023/09/18 12:54:11;;;;;;;2.22;2.03;;;;;;;;;;6196112;28;20037;-77
2023/09/18 12:57:16;;;;;;;7.25;2.40;;;;;;;;;;6203103;28;20061;-78
2023/09/18 13:00:21;;;;;;;4.70;2.10;;;;;;;;;;6203631;28;20066;-80
2023/09/18 13:03:22;;;;;;;2.83;2.10;;;;;;;;;;6197176;28;20057;-80
2023/09/18 13:06:25;;;;;;;3.72;1.90;;;;;;;;;;6195268;28;20181;-79
2023/09/18 13:09:26;;;;;;;2.10;1.70;;;;;;;;;;6195483;28;20045;-80
2023/09/18 13:13:04;;;;;;;3.10;1.73;;;;;;;;;;6194821;28;20128;-80
2023/09/18 13:16:11;;;;;;;2.63;1.80;;;;;;;;;;6165796;28;20493;-77
2023/09/18 13:19:13;;;;;;;3.70;2.00;;;;;;;;;;6174814;28;20648;-79
2023/09/18 13:22:25;;;;;;;4.43;1.77;;;;;;;;;;6198467;28;20297;-78
2023/09/18 13:25:44;;;;;;;5.60;1.73;;;;;;;;;;6192698;28;20061;-78
2023/09/18 13:28:46;;;;;;;2.03;1.70;;;;;;;;;;6190282;28;20054;-78
2023/09/18 13:31:47;;;;;;;3.17;1.92;;;;;;;;;;6207253;28;20053;-79
2023/09/18 13:34:49;;;;;;;3.50;1.73;;;;;;;;;;6196665;28;20050;-78
2023/09/18 13:37:51;;;;;;;3.88;1.90;;;;;;;;;;6193214;28;20045;-79
2023/09/18 13:40:54;;;;;;;2.67;1.70;;;;;;;;;;6196412;28;20054;-79
2023/09/18 13:43:56;;;;;;;4.70;1.65;;;;;;;;;;6190171;28;20447;-79
2023/09/18 13:46:58;;;;;;;2.00;1.80;;;;;;;;;;6202195;28;20054;-79
2023/09/18 13:50:02;;;;;;;3.20;1.73;;;;;;;;;;6204971;28;20076;-80
2023/09/18 13:53:05;;;;;;;3.15;1.90;;;;;;;;;;6166320;28;20078;-80
2023/09/18 13:56:07;;;;;;;3.42;2.17;;;;;;;;;;6156151;28;20046;-79
2023/09/18 13:59:10;;;;;;;3.65;1.90;;;;;;;;;;6165668;28;20077;-79
2023/09/18 14:02:12;;;;;;;;;;;;;;;;;;6184959;28;20057;-78
2023/09/18 14:05:13;;;;;;;2.38;1.83;;;;;;;;;;6204039;28;19932;-79
2023/09/18 14:08:19;;;;;;;2.15;1.65;;;;;;;;;;6178009;28;20056;-79
2023/09/18 14:11:21;;;;;;;3.33;1.53;;;;;;;;;;6176776;28;20070;-79
2023/09/18 14:14:23;;;;;;;4.90;1.75;;;;;;;;;;6180018;28;20050;-80
2023/09/18 14:17:25;;;;;;;2.72;1.77;;;;;;;;;;6201567;28;20059;-79
2023/09/18 14:20:27;;;;;;;;;;;;;;;;;;6195128;28;20054;-78
2023/09/18 14:23:29;;;;;;;3.97;1.85;;;;;;;;;;6193554;28;20387;-79
2023/09/18 14:26:31;;;;;;;2.10;1.50;;;;;;;;;;6191237;28;20049;-79
2023/09/18 14:29:33;;;;;;;3.97;1.90;;;;;;;;;;6194512;28;20103;-79
2023/09/18 14:32:36;;;;;;;3.63;1.80;;;;;;;;;;6201498;28;20814;-78
2023/09/18 14:35:39;;;;;;;2.83;2.00;;;;;;;;;;6199977;28;20042;-79
2023/09/18 14:38:40;;;;;;;2.85;1.90;;;;;;;;;;6201968;28;20049;-79
2023/09/18 14:41:42;;;;;;;4.27;2.33;;;;;;;;;;6207746;28;20132;-80
2023/09/18 14:44:44;;;;;;;3.70;2.10;;;;;;;;;;6199452;28;20096;-78
2023/09/18 14:47:46;;;;;;;3.53;2.40;;;;;;;;;;6205137;28;20045;-78
2023/09/18 14:50:55;;;;;;;4.97;2.45;;;;;;;;;;6177075;28;20042;-78
2023/09/18 14:54:00;;;;;;;2.90;2.45;;;;;;;;;;6182065;28;20397;-79
2023/09/18 14:57:03;;;;;;;4.18;2.63;;;;;;;;;;6196974;28;20184;-78
2023/09/18 15:00:06;;;;;;;4.00;2.55;;;;;;;;;;6194929;28;20054;-78
2023/09/18 15:03:08;;;;;;;2.97;2.50;;;;;;;;;;6197441;28;20050;-79
2023/09/18 15:06:10;;;;;;;2.97;2.70;;;;;;;;;;6203087;28;20046;-79
2023/09/18 15:09:12;;;;;;;2.83;2.53;;;;;;;;;;6192683;28;20042;-76
2023/09/18 15:12:14;;;;;;;5.53;2.88;;;;;;;;;;6191473;28;20099;-76
2023/09/18 15:15:15;;;;;;;2.92;2.70;;;;;;;;;;6197180;28;20502;-77
2023/09/18 15:18:17;;;;;;;3.97;2.97;;;;;;;;;;6210679;28;20039;-77
2023/09/18 15:21:19;;;;;;;3.47;3.13;;;;;;;;;;6184803;28;20098;-79
2023/09/18 15:24:21;;;;;;;6.10;3.05;;;;;;;;;;6186263;28;20507;-78
2023/09/18 15:27:24;;;;;;;4.27;3.30;;;;;;;;;;6186671;28;20053;-78
2023/09/18 15:30:26;;;;;;;4.00;3.20;;;;;;;;;;6191932;28;20046;-80
2023/09/18 15:33:27;;;;;;;3.40;3.10;;;;;;;;;;6198679;28;20516;-78
2023/09/18 15:36:31;;;;;;;5.57;2.90;;;;;;;;;;6196643;28;20470;-78
2023/09/18 15:39:35;;;;;;;3.70;2.97;;;;;;;;;;6196573;28;20442;-77
2023/09/18 15:42:37;;;;;;;3.40;2.45;;;;;;;;;;6194464;28;20122;-78
2023/09/18 15:45:40;;;;;;;2.60;2.40;;;;;;;;;;6199420;28;20512;-78
2023/09/18 15:48:41;;;;;;;4.80;2.42;;;;;;;;;;6194437;28;20076;-78
2023/09/18 15:51:43;;;;;;;3.30;2.50;;;;;;;;;;6193752;28;20108;-78
2023/09/18 15:54:45;;;;;;;3.97;2.33;;;;;;;;;;6188555;28;20441;-77
2023/09/18 15:57:47;;;;;;;4.97;2.30;;;;;;;;;;6181303;28;20038;-78
2023/09/18 16:00:49;;;;;;;2.10;1.80;;;;;;;;;;6185138;28;20531;-77
2023/09/18 16:03:51;;;;;;;2.22;1.75;;;;;;;;;;6184986;28;20046;-77
2023/09/18 16:06:53;;;;;;;6.75;2.10;;;;;;;;;;6183290;28;20073;-79
2023/09/18 16:09:55;;;;;;;4.57;2.10;;;;;;;;;;6186452;28;20801;-78
2023/09/18 16:12:56;;;;;;;3.35;2.00;;;;;;;;;;6186405;28;20604;-79
2023/09/18 16:16:00;;;;;;;4.63;2.25;;;;;;;;;;6173493;28;20062;-77
2023/09/18 16:19:02;;;;;;;5.28;2.00;;;;;;;;;;6191779;28;20046;-77
2023/09/18 16:22:04;;;;;;;4.68;2.03;;;;;;;;;;6184401;28;20050;-76
2023/09/18 16:25:06;;;;;;;2.55;1.83;;;;;;;;;;6181852;28;20048;-78
2023/09/18 16:28:08;;;;;;;2.75;1.95;;;;;;;;;;6196825;28;20088;-77
2023/09/18 16:31:09;;;;;;;2.70;1.73;;;;;;;;;;6187294;28;20049;-76
2023/09/18 16:34:11;;;;;;;3.40;2.00;;;;;;;;;;6191348;28;20046;-77
2023/09/18 16:37:13;;;;;;;3.92;2.03;;;;;;;;;;6183808;28;20516;-79
2023/09/18 16:40:15;;;;;;;2.55;1.70;;;;;;;;;;6187192;28;20047;-78
2023/09/18 16:43:19;;;;;;;2.85;1.92;;;;;;;;;;6181318;28;20042;-78
2023/09/18 16:46:21;;;;;;;3.95;2.20;;;;;;;;;;6191625;28;20088;-78
2023/09/18 16:49:23;;;;;;;3.97;2.38;;;;;;;;;;6183346;28;20090;-78
2023/09/18 16:52:24;;;;;;;3.72;1.90;;;;;;;;;;6185970;28;20050;-76
2023/09/18 16:55:26;;;;;;;3.63;1.90;;;;;;;;;;6191005;28;20084;-78
2023/09/18 16:58:28;;;;;;;3.63;1.90;;;;;;;;;;6199181;28;20101;-76
2023/09/18 17:01:30;;;;;;;2.47;2.00;;;;;;;;;;6193286;28;20042;-77
2023/09/18 17:04:31;;;;;;;4.73;2.10;;;;;;;;;;6194061;28;20075;-78
2023/09/18 17:07:33;;;;;;;4.40;2.20;;;;;;;;;;6189614;28;20104;-77
2023/09/18 17:10:35;;;;;;;2.95;2.03;;;;;;;;;;6177246;28;20050;-79
2023/09/18 17:13:37;;;;;;;3.33;2.08;;;;;;;;;;6179915;28;20057;-77
2023/09/18 17:16:40;;;;;;;3.15;1.80;;;;;;;;;;6198780;28;20046;-78
2023/09/18 17:19:44;;;;;;;2.97;1.90;;;;;;;;;;6189501;28;20049;-78
2023/09/18 17:22:49;;;;;;;2.65;1.60;;;;;;;;;;6190040;28;20042;-79
2023/09/18 17:25:52;;;;;;;;;;;;;;;;;;6187488;28;20682;-78
2023/09/18 17:28:55;;;;;;;;;;;;;;;;;;6195152;28;19922;-78
2023/09/18 17:31:59;;;;;;;2.40;1.70;;;;;;;;;;6190169;28;20082;-78
2023/09/18 17:35:04;;;;;;;5.40;2.72;;;;;;;;;;6186110;28;20449;-79
2023/09/18 17:38:07;;;;;;;3.55;2.00;;;;;;;;;;6189311;28;20038;-78
2023/09/18 17:41:12;;;;;;;4.55;2.13;;;;;;;;;;6190548;28;20046;-79
2023/09/18 17:44:16;;;;;;;;;;;;;;;;;;6197770;28;20185;-79
2023/09/18 17:47:18;;;;;;;2.50;2.10;;;;;;;;;;6193790;28;19948;-78
2023/09/18 17:50:23;;;;;;;3.10;2.13;;;;;;;;;;6197227;28;20169;-78
2023/09/18 17:53:26;;;;;;;2.87;2.07;;;;;;;;;;6189208;28;20081;-78
2023/09/18 17:56:27;;;;;;;2.57;2.17;;;;;;;;;;6206135;28;20107;-77
2023/09/18 17:59:30;;;;;;;2.85;1.80;;;;;;;;;;6170777;28;20105;-78
2023/09/18 18:02:32;;;;;;;2.58;2.03;;;;;;;;;;6199706;28;20046;-78
2023/09/18 18:05:35;;;;;;;;;;;;;;;;;;6181743;28;20515;-78
2023/09/18 18:08:36;;;;;;;4.30;2.17;;;;;;;;;;6166956;28;19926;-80
2023/09/18 18:11:38;;;;;;;4.60;2.00;;;;;;;;;;6170518;28;20076;-80
2023/09/18 18:14:40;;;;;;;3.20;1.65;;;;;;;;;;6160978;28;20046;-80
2023/09/18 18:17:42;;;;;;;4.22;2.08;;;;;;;;;;6195532;28;20053;-80
2023/09/18 18:20:45;;;;;;;3.63;2.08;;;;;;;;;;6189904;28;20539;-79
2023/09/18 18:23:47;;;;;;;3.50;2.30;;;;;;;;;;6177128;28;20142;-79
2023/09/18 18:26:48;;;;;;;4.10;2.35;;;;;;;;;;6168243;28;21064;-79
2023/09/18 18:29:50;;;;;;;4.45;2.00;;;;;;;;;;6172899;28;20043;-80
2023/09/18 18:32:59;;;;;;;3.33;2.13;;;;;;;;;;6172866;28;20047;-79
2023/09/18 18:36:01;;;;;;;4.20;2.20;;;;;;;;;;6185673;28;20055;-79